Time;durP1;ratioP1;P1;durP2;ratioP2;P2;SDS_P1;SDS_P2;PMS_P1;PMS_P2;Temp;Humidity;BMP_temperature;BMP_pressure;BME280_temperature;BME280_humidity;BME280_pressure;Samples;Min_cycle;Max_cycle;Signal;HPM_P1;HPM_P2
2022/01/29 00:01:33;;;;;;;0.70;0.70;;;6.30;99.90;;;;;;5072639;28;20598;-70
2022/01/29 00:03:59;;;;;;;0.80;0.80;;;6.40;99.90;;;;;;5072550;28;20262;-70
2022/01/29 00:06:24;;;;;;;0.63;0.57;;;6.40;99.90;;;;;;5066589;28;20686;-70
2022/01/29 00:08:51;;;;;;;0.90;0.70;;;6.50;99.90;;;;;;5052593;28;20186;-70
2022/01/29 00:11:17;;;;;;;1.47;1.40;;;6.40;99.90;;;;;;5052719;28;20622;-71
2022/01/29 00:13:43;;;;;;;0.70;0.70;;;6.50;99.90;;;;;;5052457;28;20484;-70
2022/01/29 00:16:09;;;;;;;0.70;0.60;;;6.60;99.90;;;;;;5071021;28;20927;-70
2022/01/29 00:18:35;;;;;;;1.00;0.90;;;6.60;99.90;;;;;;5072789;28;20663;-70
2022/01/29 00:21:01;;;;;;;0.70;0.60;;;6.60;99.90;;;;;;5072545;28;20396;-71
2022/01/29 00:23:27;;;;;;;0.73;0.73;;;6.70;99.90;;;;;;5071637;28;20515;-70
2022/01/29 00:25:53;;;;;;;0.70;0.70;;;6.70;99.90;;;;;;5072197;28;20535;-70
2022/01/29 00:28:18;;;;;;;1.17;1.17;;;6.60;99.90;;;;;;5067583;28;20201;-70
2022/01/29 00:30:45;;;;;;;0.70;0.70;;;6.70;99.90;;;;;;5052324;28;20398;-70
2022/01/29 00:33:12;;;;;;;1.90;1.57;;;6.70;99.90;;;;;;5055113;28;20171;-70
2022/01/29 00:35:38;;;;;;;1.37;1.27;;;6.70;99.90;;;;;;5063809;28;20422;-70
2022/01/29 00:38:04;;;;;;;0.70;0.60;;;6.70;99.90;;;;;;5072487;28;20810;-70
2022/01/29 00:40:31;;;;;;;0.70;0.70;;;6.70;99.90;;;;;;5072254;28;20455;-70
2022/01/29 00:42:57;;;;;;;0.67;0.60;;;6.70;99.90;;;;;;5072310;28;20245;-70
2022/01/29 00:45:23;;;;;;;3.23;2.83;;;6.70;99.90;;;;;;5071363;28;20868;-71
2022/01/29 00:47:48;;;;;;;1.40;1.13;;;6.80;99.90;;;;;;5054392;28;20441;-70
2022/01/29 00:50:14;;;;;;;2.80;1.37;;;6.80;99.90;;;;;;5051766;28;20190;-71
2022/01/29 00:52:40;;;;;;;1.47;1.07;;;6.80;99.90;;;;;;5052095;28;20250;-71
2022/01/29 00:55:08;;;;;;;1.70;1.60;;;6.80;99.90;;;;;;5051571;28;20183;-72
2022/01/29 00:57:37;;;;;;;0.67;0.50;;;6.90;99.90;;;;;;5067374;28;20553;-70
2022/01/29 01:00:04;;;;;;;2.00;1.60;;;6.90;99.90;;;;;;5071922;28;20495;-72
2022/01/29 01:02:29;;;;;;;2.43;2.20;;;6.90;99.90;;;;;;5053945;28;20421;-70
2022/01/29 01:04:55;;;;;;;1.57;1.07;;;6.80;99.90;;;;;;5051512;28;20514;-70
2022/01/29 01:07:20;;;;;;;0.63;0.50;;;6.90;99.90;;;;;;5056092;28;20175;-70
2022/01/29 01:09:46;;;;;;;0.67;0.60;;;7.00;99.90;;;;;;5071917;28;20162;-70
2022/01/29 01:12:11;;;;;;;1.37;1.27;;;7.00;99.90;;;;;;5064141;28;20182;-70
2022/01/29 01:14:37;;;;;;;2.77;1.33;;;7.00;99.90;;;;;;5061749;28;20666;-71
2022/01/29 01:17:04;;;;;;;1.80;1.70;;;7.10;99.90;;;;;;5071364;28;20178;-70
2022/01/29 01:19:29;;;;;;;1.37;1.27;;;7.10;99.90;;;;;;5071636;28;20178;-71
2022/01/29 01:21:56;;;;;;;0.70;0.67;;;7.00;99.90;;;;;;5071722;28;20491;-70
2022/01/29 01:24:22;;;;;;;2.23;2.03;;;7.00;99.90;;;;;;5069159;28;20170;-70
2022/01/29 01:26:48;;;;;;;1.03;0.73;;;7.00;99.90;;;;;;5071651;28;20596;-70
2022/01/29 01:29:14;;;;;;;1.73;1.57;;;7.10;99.90;;;;;;5071425;28;20432;-71
2022/01/29 01:31:40;;;;;;;0.70;0.60;;;7.10;99.90;;;;;;5071677;28;20410;-71
2022/01/29 01:34:07;;;;;;;0.67;0.60;;;7.10;99.90;;;;;;5071443;28;20162;-71
2022/01/29 01:36:38;;;;;;;0.70;0.70;;;7.00;99.90;;;;;;5071653;28;20169;-70
2022/01/29 01:39:08;;;;;;;2.50;2.30;;;7.00;99.90;;;;;;5071550;28;20516;-70
2022/01/29 01:41:39;;;;;;;0.67;0.60;;;7.10;99.90;;;;;;5071538;28;20511;-71
2022/01/29 01:44:05;;;;;;;45.20;3.80;;;7.10;99.90;;;;;;5071456;28;20424;-71
2022/01/29 01:46:31;;;;;;;1.27;1.17;;;7.00;99.90;;;;;;5071756;28;20448;-70
2022/01/29 01:48:57;;;;;;;1.77;1.67;;;7.00;99.90;;;;;;5071943;28;20186;-70
2022/01/29 01:51:23;;;;;;;0.77;0.77;;;6.90;99.90;;;;;;5065166;28;20785;-70
2022/01/29 01:53:48;;;;;;;5.10;0.97;;;6.90;99.90;;;;;;5051104;28;20428;-71
2022/01/29 01:56:14;;;;;;;2.80;2.50;;;6.90;99.90;;;;;;5067784;28;20916;-70
2022/01/29 01:58:40;;;;;;;1.17;1.07;;;6.90;99.90;;;;;;5075227;28;20764;-70
2022/01/29 02:01:05;;;;;;;0.80;0.60;;;6.90;99.90;;;;;;5074963;28;20663;-70
2022/01/29 02:03:32;;;;;;;0.70;0.60;;;6.90;99.90;;;;;;5075051;28;20170;-70
2022/01/29 02:05:58;;;;;;;0.73;0.73;;;6.90;99.90;;;;;;5074862;28;20269;-70
2022/01/29 02:08:24;;;;;;;1.27;1.17;;;6.90;99.90;;;;;;5074940;28;20947;-69
2022/01/29 02:10:50;;;;;;;1.90;1.80;;;6.90;99.90;;;;;;5074435;28;20416;-70
2022/01/29 02:13:16;;;;;;;1.07;0.80;;;6.90;99.90;;;;;;5074489;28;20163;-70
2022/01/29 02:15:42;;;;;;;3.33;1.43;;;6.90;99.90;;;;;;5074671;28;20412;-70
2022/01/29 02:18:15;;;;;;;1.13;1.13;;;6.90;99.90;;;;;;5074758;28;20249;-70
2022/01/29 02:20:42;;;;;;;1.43;1.33;;;6.90;99.90;;;;;;5074165;28;20170;-70
2022/01/29 02:23:08;;;;;;;0.67;0.50;;;6.90;99.90;;;;;;5074557;28;20412;-70
2022/01/29 02:25:36;;;;;;;1.13;1.10;;;6.90;99.90;;;;;;5074373;28;20448;-70
2022/01/29 02:28:03;;;;;;;1.40;1.30;;;6.90;99.90;;;;;;5074616;28;20194;-71
2022/01/29 02:30:32;;;;;;;0.63;0.60;;;6.90;99.90;;;;;;5074572;28;20409;-71
2022/01/29 02:32:58;;;;;;;7.23;1.60;;;6.90;99.90;;;;;;5089905;28;20413;-72
2022/01/29 02:35:24;;;;;;;2.90;1.13;;;7.00;99.90;;;;;;5069525;28;20460;-72
2022/01/29 02:37:52;;;;;;;1.67;1.57;;;7.00;99.90;;;;;;5073634;28;20436;-71
2022/01/29 02:40:19;;;;;;;1.20;0.90;;;7.00;99.90;;;;;;5074455;28;20401;-72
2022/01/29 02:42:44;;;;;;;0.67;0.60;;;7.00;99.90;;;;;;5090090;28;20415;-72
2022/01/29 02:45:10;;;;;;;0.90;0.90;;;7.00;99.90;;;;;;5073995;28;20872;-71
2022/01/29 02:47:36;;;;;;;2.50;2.30;;;7.00;99.90;;;;;;5073864;28;20447;-72
2022/01/29 02:50:01;;;;;;;0.67;0.63;;;7.00;99.90;;;;;;5074274;28;20162;-71
2022/01/29 02:52:27;;;;;;;2.30;1.60;;;7.00;99.90;;;;;;5074231;28;20205;-71
2022/01/29 02:54:52;;;;;;;1.83;1.73;;;7.00;99.90;;;;;;5073542;28;20199;-71
2022/01/29 02:57:19;;;;;;;0.70;0.60;;;7.00;99.90;;;;;;5073033;28;20202;-72
2022/01/29 02:59:45;;;;;;;2.90;2.10;;;7.00;99.90;;;;;;5072837;28;21003;-72
2022/01/29 03:02:10;;;;;;;2.70;2.50;;;7.00;99.90;;;;;;5073946;28;20665;-71
2022/01/29 03:04:36;;;;;;;1.03;0.83;;;7.00;99.90;;;;;;5073672;28;20170;-71
2022/01/29 03:07:01;;;;;;;0.70;0.70;;;6.90;99.90;;;;;;5073089;28;20170;-71
2022/01/29 03:09:27;;;;;;;1.10;0.73;;;6.90;99.90;;;;;;5073993;28;20628;-71
2022/01/29 03:11:55;;;;;;;0.70;0.50;;;6.90;99.90;;;;;;5073874;28;20219;-72
2022/01/29 03:14:21;;;;;;;1.40;1.17;;;6.90;99.90;;;;;;5073443;28;20245;-71
2022/01/29 03:16:46;;;;;;;0.80;0.80;;;6.90;99.90;;;;;;5072847;28;20507;-71
2022/01/29 03:19:12;;;;;;;1.00;1.00;;;6.80;99.90;;;;;;5073727;28;20198;-71
2022/01/29 03:21:37;;;;;;;1.13;0.60;;;6.90;99.90;;;;;;5073172;28;20197;-72
2022/01/29 03:24:03;;;;;;;0.90;0.77;;;6.90;99.90;;;;;;5080655;28;20545;-71
2022/01/29 03:26:29;;;;;;;3.90;2.63;;;6.80;99.90;;;;;;5078529;28;20565;-71
2022/01/29 03:28:54;;;;;;;0.77;0.77;;;6.80;99.90;;;;;;5079037;28;20661;-71
2022/01/29 03:31:20;;;;;;;0.80;0.70;;;6.80;99.90;;;;;;5071350;28;20170;-72
2022/01/29 03:33:46;;;;;;;1.93;1.57;;;6.90;99.90;;;;;;5071016;28;20170;-71
2022/01/29 03:36:11;;;;;;;1.43;1.33;;;6.90;99.90;;;;;;5071566;28;20178;-71
2022/01/29 03:38:40;;;;;;;1.70;1.60;;;6.90;99.90;;;;;;5072582;28;20663;-71
2022/01/29 03:41:07;;;;;;;1.43;1.33;;;6.90;99.90;;;;;;5062813;28;20229;-71
2022/01/29 03:43:40;;;;;;;1.00;0.50;;;6.90;99.90;;;;;;5055081;28;20432;-71
2022/01/29 03:46:05;;;;;;;0.77;0.73;;;6.90;99.90;;;;;;5052885;28;20533;-71
2022/01/29 03:48:31;;;;;;;1.37;1.27;;;6.90;99.90;;;;;;5053098;28;20455;-71
2022/01/29 03:50:56;;;;;;;0.67;0.60;;;6.80;99.90;;;;;;5053183;28;20632;-71
2022/01/29 03:53:22;;;;;;;0.60;0.60;;;6.80;99.90;;;;;;5051634;28;20179;-71
2022/01/29 03:55:47;;;;;;;0.73;0.73;;;6.70;99.90;;;;;;5052798;28;20171;-71
2022/01/29 03:58:13;;;;;;;1.13;1.13;;;6.70;99.90;;;;;;5061688;28;20744;-72
2022/01/29 04:00:38;;;;;;;3.37;3.17;;;6.70;99.90;;;;;;5072693;28;20228;-71
2022/01/29 04:03:04;;;;;;;2.20;1.03;;;6.70;99.90;;;;;;5072582;28;20182;-71
2022/01/29 04:05:30;;;;;;;1.00;1.00;;;6.70;99.90;;;;;;5072369;28;20200;-71
2022/01/29 04:07:55;;;;;;;1.30;1.13;;;6.70;99.90;;;;;;5071413;28;20193;-71
2022/01/29 04:10:22;;;;;;;1.90;1.80;;;6.70;99.90;;;;;;5069777;28;20174;-71
2022/01/29 04:12:51;;;;;;;1.93;1.83;;;6.70;99.90;;;;;;5070283;28;20193;-71
2022/01/29 04:15:16;;;;;;;2.30;2.10;;;6.60;99.90;;;;;;5071005;28;20428;-71
2022/01/29 04:17:42;;;;;;;1.47;1.37;;;6.70;99.90;;;;;;5071146;28;20427;-71
2022/01/29 04:20:08;;;;;;;0.60;0.60;;;6.70;99.90;;;;;;5071697;28;20246;-72
2022/01/29 04:22:33;;;;;;;1.53;1.43;;;6.70;99.90;;;;;;5072163;28;20773;-71
2022/01/29 04:24:59;;;;;;;0.60;0.60;;;6.70;99.90;;;;;;5071389;28;20535;-71
2022/01/29 04:27:34;;;;;;;0.80;0.80;;;6.70;99.90;;;;;;5072254;28;20249;-71
2022/01/29 04:30:06;;;;;;;0.70;0.60;;;6.60;99.90;;;;;;5071830;28;20177;-71
2022/01/29 04:35:04;;;;;;;0.60;0.60;;;6.60;99.90;;;;;;5070624;28;20432;-71
2022/01/29 04:37:29;;;;;;;0.60;0.60;;;6.70;99.90;;;;;;5071267;28;21050;-71
2022/01/29 04:39:55;;;;;;;1.23;0.93;;;6.70;99.90;;;;;;5069704;28;20440;-71
2022/01/29 04:42:20;;;;;;;0.80;0.80;;;6.60;99.90;;;;;;5070387;28;20188;-71
2022/01/29 04:44:46;;;;;;;1.17;1.00;;;6.70;99.90;;;;;;5070841;28;20580;-71
2022/01/29 04:47:11;;;;;;;0.60;0.60;;;6.60;99.90;;;;;;5071968;28;20566;-71
2022/01/29 04:49:37;;;;;;;0.97;0.97;;;6.60;99.90;;;;;;5071739;28;20225;-71
2022/01/29 04:52:03;;;;;;;2.40;1.03;;;6.60;99.90;;;;;;5072128;28;20174;-71
2022/01/29 04:54:28;;;;;;;0.60;0.60;;;6.60;99.90;;;;;;5070964;28;20277;-71
2022/01/29 04:56:54;;;;;;;1.13;1.13;;;6.60;99.90;;;;;;5071428;28;20194;-71
2022/01/29 04:59:19;;;;;;;0.70;0.70;;;6.50;99.90;;;;;;5071656;28;20252;-71
2022/01/29 05:01:45;;;;;;;0.60;0.50;;;6.60;99.90;;;;;;5069898;28;20673;-71
2022/01/29 05:04:10;;;;;;;0.80;0.80;;;6.60;99.90;;;;;;5069654;28;20182;-72
2022/01/29 05:06:36;;;;;;;0.60;0.60;;;6.60;99.90;;;;;;5070516;28;20205;-71
2022/01/29 05:09:03;;;;;;;0.60;0.60;;;6.60;99.90;;;;;;5071843;28;20186;-71
2022/01/29 05:11:29;;;;;;;0.60;0.60;;;6.60;99.90;;;;;;5071357;28;20169;-71
2022/01/29 05:13:54;;;;;;;0.80;0.80;;;6.60;99.90;;;;;;5071016;28;20489;-71
2022/01/29 05:27:16;;;;;;;0.60;0.60;;;6.70;99.90;;;;;;5071831;28;20424;-71
2022/01/29 05:29:42;;;;;;;0.70;0.70;;;6.70;99.90;;;;;;5070909;28;20424;-71
2022/01/29 05:32:09;;;;;;;0.87;0.87;;;6.70;99.90;;;;;;5073075;28;20205;-72
2022/01/29 05:34:35;;;;;;;1.27;1.13;;;6.70;99.90;;;;;;5075721;28;20178;-71
2022/01/29 05:37:02;;;;;;;0.60;0.60;;;6.70;99.90;;;;;;5079541;28;20443;-71
2022/01/29 05:39:28;;;;;;;0.60;0.57;;;6.70;99.90;;;;;;5078384;28;20456;-72
2022/01/29 05:41:54;;;;;;;0.60;0.60;;;6.70;99.90;;;;;;5075994;28;20401;-71
2022/01/29 05:44:20;;;;;;;0.60;0.60;;;6.70;99.90;;;;;;5079684;28;20174;-71
2022/01/29 05:46:45;;;;;;;0.67;0.67;;;6.70;99.90;;;;;;5077048;28;20456;-72
2022/01/29 05:49:11;;;;;;;0.60;0.50;;;6.70;99.90;;;;;;5075411;28;20453;-71
2022/01/29 05:51:36;;;;;;;0.60;0.60;;;6.70;99.90;;;;;;5079380;28;20158;-72
2022/01/29 05:54:03;;;;;;;0.60;0.53;;;6.80;99.90;;;;;;5073698;28;20700;-72
2022/01/29 05:56:29;;;;;;;0.60;0.60;;;6.80;99.90;;;;;;5074598;28;20202;-71
2022/01/29 05:58:55;;;;;;;0.60;0.53;;;6.80;99.90;;;;;;5072967;28;20484;-72
2022/01/29 06:01:21;;;;;;;0.60;0.50;;;6.80;99.90;;;;;;5071923;28;20535;-70
2022/01/29 06:03:47;;;;;;;0.80;0.80;;;6.80;99.90;;;;;;5073469;28;21004;-71
2022/01/29 06:06:12;;;;;;;0.60;0.60;;;6.80;99.90;;;;;;5077431;28;20466;-72
2022/01/29 06:08:38;;;;;;;0.60;0.50;;;6.80;99.90;;;;;;5080211;28;20186;-71
2022/01/29 06:11:04;;;;;;;0.60;0.50;;;6.80;99.90;;;;;;5073420;28;20626;-72
2022/01/29 06:13:29;;;;;;;0.60;0.60;;;6.80;99.90;;;;;;5061431;28;20224;-72
2022/01/29 06:15:55;;;;;;;0.87;0.87;;;6.80;99.90;;;;;;5074312;28;20558;-71
2022/01/29 06:18:22;;;;;;;0.60;0.57;;;6.90;99.90;;;;;;5073350;28;20202;-71
2022/01/29 06:20:56;;;;;;;3.57;2.30;;;6.80;99.90;;;;;;5073768;28;20178;-72
2022/01/29 06:23:29;;;;;;;0.60;0.50;;;6.90;99.90;;;;;;5054850;28;20413;-72
2022/01/29 06:25:55;;;;;;;0.60;0.60;;;6.90;99.90;;;;;;5055238;28;20457;-72
2022/01/29 06:28:20;;;;;;;0.60;0.60;;;6.90;99.90;;;;;;5073326;28;20456;-72
2022/01/29 06:30:46;;;;;;;1.37;1.27;;;6.90;99.90;;;;;;5077937;28;20924;-72
2022/01/29 06:33:13;;;;;;;0.60;0.53;;;6.90;99.90;;;;;;5077464;28;20183;-72
2022/01/29 06:35:41;;;;;;;0.60;0.60;;;7.00;99.90;;;;;;5077274;28;20179;-72
2022/01/29 06:38:08;;;;;;;0.60;0.50;;;7.00;99.90;;;;;;5084690;28;20547;-72
2022/01/29 06:40:34;;;;;;;0.60;0.50;;;7.00;99.90;;;;;;5074547;28;20454;-73
2022/01/29 06:43:04;;;;;;;0.80;0.70;;;7.00;99.90;;;;;;5072621;28;20791;-72
2022/01/29 06:45:31;;;;;;;0.60;0.53;;;7.10;99.90;;;;;;5073226;28;20840;-72
2022/01/29 06:47:57;;;;;;;0.83;0.83;;;7.10;99.90;;;;;;5074845;28;20432;-72
2022/01/29 06:50:23;;;;;;;0.60;0.50;;;7.20;99.90;;;;;;5079426;28;20513;-72
2022/01/29 06:52:49;;;;;;;0.60;0.60;;;7.20;99.90;;;;;;5079100;28;20436;-72
2022/01/29 06:55:15;;;;;;;1.03;1.03;;;7.30;99.90;;;;;;5077903;28;20448;-74
2022/01/29 06:57:41;;;;;;;0.60;0.50;;;7.20;99.90;;;;;;5076333;28;21000;-72
2022/01/29 07:00:07;;;;;;;0.60;0.53;;;7.20;99.90;;;;;;5077709;28;20440;-72
2022/01/29 07:02:34;;;;;;;1.23;1.13;;;7.20;99.90;;;;;;5078562;28;20182;-72
2022/01/29 07:05:00;;;;;;;1.37;1.27;;;7.20;99.90;;;;;;5075045;28;20965;-72
2022/01/29 07:07:26;;;;;;;0.60;0.60;;;7.30;99.90;;;;;;5077821;28;20405;-72
2022/01/29 07:09:52;;;;;;;0.70;0.70;;;7.30;99.90;;;;;;5074018;28;20177;-72
2022/01/29 07:12:17;;;;;;;0.77;0.77;;;7.30;99.90;;;;;;5069484;28;20432;-72
2022/01/29 07:14:43;;;;;;;0.60;0.50;;;7.30;99.90;;;;;;5072108;28;20185;-71
2022/01/29 07:17:15;;;;;;;0.60;0.60;;;7.30;99.90;;;;;;5076078;28;20185;-73
2022/01/29 07:19:41;;;;;;;0.60;0.60;;;7.40;99.90;;;;;;5073247;28;20189;-72
2022/01/29 07:22:06;;;;;;;0.60;0.60;;;7.40;99.90;;;;;;5073538;28;20412;-72
2022/01/29 07:24:33;;;;;;;0.60;0.60;;;7.40;99.90;;;;;;5072795;28;20473;-72
2022/01/29 07:26:58;;;;;;;0.60;0.60;;;7.50;99.90;;;;;;5072741;28;20213;-71
2022/01/29 07:29:24;;;;;;;0.67;0.67;;;7.50;99.90;;;;;;5072249;28;20436;-72
2022/01/29 07:31:50;;;;;;;0.80;0.70;;;7.50;99.90;;;;;;5072909;28;20600;-72
2022/01/29 07:34:16;;;;;;;0.60;0.60;;;7.50;99.90;;;;;;5071248;28;20515;-72
2022/01/29 07:36:42;;;;;;;0.93;0.93;;;7.50;99.90;;;;;;5072860;28;20518;-72
2022/01/29 07:39:07;;;;;;;0.70;0.70;;;7.50;99.90;;;;;;5068135;28;20969;-72
2022/01/29 07:41:33;;;;;;;0.70;0.60;;;7.60;99.90;;;;;;5068017;28;20186;-72
2022/01/29 07:43:58;;;;;;;3.33;0.80;;;7.50;99.90;;;;;;5072033;28;20185;-72
2022/01/29 07:46:24;;;;;;;0.60;0.60;;;7.60;99.90;;;;;;5072499;28;20201;-71
2022/01/29 07:48:49;;;;;;;0.70;0.70;;;7.50;99.90;;;;;;5071841;28;20217;-72
2022/01/29 07:51:15;;;;;;;0.60;0.60;;;7.60;99.90;;;;;;5073146;28;20169;-71
2022/01/29 07:53:40;;;;;;;0.97;0.97;;;7.70;99.90;;;;;;5072433;28;20201;-71
2022/01/29 07:56:06;;;;;;;0.70;0.60;;;7.70;99.90;;;;;;5072526;28;20182;-73
2022/01/29 07:58:32;;;;;;;2.60;1.07;;;7.70;99.90;;;;;;5072274;28;20202;-73
2022/01/29 08:00:57;;;;;;;0.60;0.60;;;7.80;99.90;;;;;;5073052;28;20252;-72
2022/01/29 08:03:23;;;;;;;0.60;0.60;;;7.80;99.90;;;;;;5071539;28;20182;-72
2022/01/29 08:05:48;;;;;;;1.53;1.10;;;7.80;99.90;;;;;;5071639;28;20190;-71
2022/01/29 08:08:14;;;;;;;0.60;0.60;;;7.80;99.90;;;;;;5074101;28;20197;-72
2022/01/29 08:10:39;;;;;;;0.67;0.60;;;8.00;99.90;;;;;;5072694;28;20185;-72
2022/01/29 08:13:05;;;;;;;0.60;0.60;;;8.00;99.90;;;;;;5070876;28;20236;-72
2022/01/29 08:15:30;;;;;;;0.60;0.60;;;8.00;99.90;;;;;;5075406;28;20240;-72
2022/01/29 08:17:56;;;;;;;4.50;1.47;;;8.00;99.90;;;;;;5072229;28;20670;-72
2022/01/29 08:20:22;;;;;;;1.43;1.33;;;8.00;99.90;;;;;;5073703;28;20186;-72
2022/01/29 08:22:47;;;;;;;0.60;0.50;;;8.00;99.90;;;;;;5070390;28;20206;-72
2022/01/29 08:25:14;;;;;;;0.60;0.60;;;8.00;99.90;;;;;;5071919;28;20190;-72
2022/01/29 08:27:40;;;;;;;0.70;0.70;;;8.00;99.90;;;;;;5073074;28;20190;-71
2022/01/29 08:30:06;;;;;;;0.93;0.93;;;8.00;99.90;;;;;;5072398;28;20404;-71
2022/01/29 08:32:31;;;;;;;0.67;0.60;;;8.00;99.90;;;;;;5071175;28;20650;-72
2022/01/29 08:34:57;;;;;;;1.00;1.00;;;8.00;99.90;;;;;;5070405;28;20464;-70
2022/01/29 08:37:23;;;;;;;1.07;1.07;;;8.10;99.90;;;;;;5074423;28;20182;-70
2022/01/29 08:39:48;;;;;;;0.60;0.60;;;8.10;99.90;;;;;;5072226;28;20178;-71
2022/01/29 08:42:14;;;;;;;0.90;0.90;;;8.10;99.90;;;;;;5072287;28;20165;-71
2022/01/29 08:44:41;;;;;;;0.70;0.70;;;8.10;99.90;;;;;;5071985;28;20249;-70
2022/01/29 08:47:06;;;;;;;0.60;0.60;;;8.20;99.90;;;;;;5068527;28;20213;-71
2022/01/29 08:49:32;;;;;;;0.60;0.60;;;8.30;99.90;;;;;;5071314;28;20453;-71
2022/01/29 08:51:57;;;;;;;0.63;0.60;;;8.30;99.90;;;;;;5074360;28;20170;-71
2022/01/29 08:54:23;;;;;;;2.90;1.23;;;8.30;99.90;;;;;;5070875;28;20654;-68
2022/01/29 08:56:49;;;;;;;0.93;0.93;;;8.40;99.90;;;;;;5072168;28;20170;-71
2022/01/29 08:59:14;;;;;;;0.90;0.90;;;8.40;99.90;;;;;;5070117;28;20267;-72
2022/01/29 09:01:40;;;;;;;0.63;0.60;;;8.50;99.90;;;;;;5068152;28;20174;-71
2022/01/29 09:04:06;;;;;;;0.60;0.60;;;8.50;99.90;;;;;;5064964;28;20196;-70
2022/01/29 09:06:31;;;;;;;0.63;0.60;;;8.50;99.90;;;;;;5076962;28;20197;-71
2022/01/29 09:08:57;;;;;;;0.60;0.60;;;8.50;99.90;;;;;;5078513;28;20199;-72
2022/01/29 09:11:22;;;;;;;0.70;0.60;;;8.50;99.90;;;;;;5071511;28;20196;-71
2022/01/29 09:13:48;;;;;;;0.60;0.60;;;8.50;99.90;;;;;;5072316;28;20193;-70
2022/01/29 09:16:13;;;;;;;0.63;0.63;;;8.60;99.90;;;;;;5071592;28;20186;-71
2022/01/29 09:18:39;;;;;;;0.87;0.87;;;8.50;99.90;;;;;;5071280;28;20217;-71
2022/01/29 09:21:05;;;;;;;1.10;0.80;;;8.60;99.90;;;;;;5070456;28;20665;-71
2022/01/29 09:23:31;;;;;;;1.30;1.23;;;8.70;99.90;;;;;;5065277;28;20182;-72
2022/01/29 09:25:57;;;;;;;0.83;0.83;;;8.80;99.90;;;;;;5064555;28;20825;-70
2022/01/29 09:28:23;;;;;;;0.70;0.70;;;8.70;99.90;;;;;;5063904;28;20593;-72
2022/01/29 09:30:49;;;;;;;0.70;0.60;;;8.80;99.90;;;;;;5067148;28;20284;-70
2022/01/29 09:33:16;;;;;;;0.70;0.70;;;8.90;99.90;;;;;;5080354;28;20431;-72
2022/01/29 09:35:42;;;;;;;0.67;0.50;;;9.00;99.90;;;;;;5065660;28;20425;-72
2022/01/29 09:38:09;;;;;;;0.60;0.60;;;9.20;99.90;;;;;;5071629;28;21058;-72
2022/01/29 09:40:35;;;;;;;0.60;0.50;;;9.40;99.90;;;;;;5067038;28;20873;-72
2022/01/29 09:43:05;;;;;;;0.80;0.80;;;9.40;99.90;;;;;;5068184;28;20442;-72
2022/01/29 09:45:31;;;;;;;0.70;0.70;;;9.50;99.90;;;;;;5070760;28;20941;-72
2022/01/29 09:48:01;;;;;;;0.70;0.60;;;9.60;99.90;;;;;;5070515;28;20467;-72
2022/01/29 09:50:36;;;;;;;0.93;0.93;;;9.70;99.90;;;;;;5071207;28;20964;-72
2022/01/29 09:53:02;;;;;;;0.70;0.63;;;9.80;99.90;;;;;;5070983;28;20435;-72
2022/01/29 09:55:29;;;;;;;0.67;0.60;;;9.90;99.90;;;;;;5069842;28;20774;-71
2022/01/29 09:57:55;;;;;;;0.93;0.93;;;9.90;99.90;;;;;;5067979;28;20823;-72
2022/01/29 10:00:21;;;;;;;0.70;0.60;;;10.00;99.90;;;;;;5075424;28;20448;-71
2022/01/29 10:03:10;;;;;;;0.67;0.53;;;10.00;99.90;;;;;;5068512;28;20482;-72
2022/01/29 10:05:43;;;;;;;1.27;1.27;;;10.20;99.90;;;;;;5062104;28;20206;-71
2022/01/29 10:08:09;;;;;;;0.70;0.70;;;10.30;99.90;;;;;;5071330;28;20977;-71
2022/01/29 10:10:50;;;;;;;0.80;0.80;;;10.60;99.90;;;;;;5063536;28;20431;-71
2022/01/29 10:13:27;;;;;;;0.70;0.60;;;10.50;99.90;;;;;;5058766;28;20469;-72
2022/01/29 10:16:14;;;;;;;0.67;0.60;;;10.40;99.90;;;;;;5071096;28;20408;-71
2022/01/29 10:18:41;;;;;;;0.60;0.53;;;10.40;99.90;;;;;;5074090;28;20467;-71
2022/01/29 10:21:10;;;;;;;0.70;0.60;;;10.50;99.90;;;;;;5075045;28;20416;-72
2022/01/29 10:23:37;;;;;;;0.70;0.70;;;10.70;99.90;;;;;;5074341;28;20436;-71
2022/01/29 10:26:04;;;;;;;0.70;0.70;;;10.70;99.90;;;;;;5080249;28;20458;-71
2022/01/29 10:28:31;;;;;;;0.70;0.70;;;10.70;99.90;;;;;;5075443;28;20440;-72
2022/01/29 10:31:05;;;;;;;0.90;0.80;;;10.80;99.90;;;;;;5074650;28;20427;-72
2022/01/29 10:33:42;;;;;;;2.80;1.70;;;10.80;99.90;;;;;;5068135;28;20424;-72
2022/01/29 10:36:14;;;;;;;0.67;0.60;;;10.90;99.90;;;;;;5074280;28;20976;-72
2022/01/29 10:38:40;;;;;;;0.90;0.90;;;10.80;99.90;;;;;;5077200;28;20421;-72
2022/01/29 10:41:16;;;;;;;0.70;0.60;;;10.70;99.90;;;;;;5074309;28;20480;-71
2022/01/29 10:44:24;;;;;;;1.10;0.80;;;10.70;99.90;;;;;;5074379;28;20541;-71
2022/01/29 10:46:50;;;;;;;0.67;0.60;;;10.80;99.90;;;;;;5074012;28;20835;-69
2022/01/29 10:49:18;;;;;;;0.67;0.60;;;10.60;99.90;;;;;;5074234;28;20482;-70
2022/01/29 10:52:13;;;;;;;0.70;0.60;;;11.00;99.90;;;;;;5074582;28;20397;-70
2022/01/29 10:54:44;;;;;;;0.70;0.60;;;11.10;99.90;;;;;;5076017;28;20428;-71
2022/01/29 10:57:17;;;;;;;0.67;0.60;;;11.20;99.90;;;;;;5071600;28;20500;-70
2022/01/29 10:59:53;;;;;;;0.70;0.70;;;11.60;99.90;;;;;;5069824;28;20917;-71
2022/01/29 11:02:21;;;;;;;0.67;0.60;;;11.90;99.90;;;;;;5054322;28;20408;-71
2022/01/29 11:04:48;;;;;;;0.67;0.60;;;11.70;99.90;;;;;;5054184;28;20409;-71
2022/01/29 11:07:19;;;;;;;0.67;0.60;;;11.70;99.90;;;;;;5053537;28;20411;-71
2022/01/29 11:09:47;;;;;;;1.40;1.30;;;11.40;99.90;;;;;;5060366;28;20404;-71
2022/01/29 11:12:18;;;;;;;30.57;1.43;;;11.30;99.90;;;;;;5074097;28;20397;-70
2022/01/29 11:14:45;;;;;;;0.90;0.87;;;11.10;99.90;;;;;;5073802;28;20393;-69
2022/01/29 11:17:11;;;;;;;0.70;0.57;;;10.80;99.90;;;;;;5073848;28;20392;-70
2022/01/29 11:19:39;;;;;;;0.70;0.60;;;10.70;99.90;;;;;;5076040;28;20425;-71
2022/01/29 11:22:07;;;;;;;0.80;0.70;;;10.80;99.90;;;;;;5075991;28;20405;-71
2022/01/29 11:24:34;;;;;;;0.70;0.60;;;10.70;99.90;;;;;;5073467;28;20902;-71
2022/01/29 11:27:00;;;;;;;0.67;0.60;;;10.60;99.90;;;;;;5073720;28;20971;-71
2022/01/29 11:29:36;;;;;;;0.70;0.60;;;10.50;99.90;;;;;;5072288;28;20424;-71
2022/01/29 11:32:20;;;;;;;0.67;0.60;;;10.40;99.90;;;;;;5073602;28;20435;-72
2022/01/29 11:35:05;;;;;;;0.70;0.70;;;10.30;99.90;;;;;;5073104;28;20408;-71
2022/01/29 11:37:53;;;;;;;0.67;0.60;;;10.40;99.90;;;;;;5072286;28;20408;-70
2022/01/29 11:40:25;;;;;;;0.67;0.60;;;10.40;99.90;;;;;;5073789;28;20462;-70
2022/01/29 11:42:57;;;;;;;0.67;0.60;;;10.40;99.90;;;;;;5073427;28;20437;-71
2022/01/29 11:45:41;;;;;;;0.67;0.60;;;10.40;99.90;;;;;;5073180;28;20455;-71
2022/01/29 11:48:39;;;;;;;0.67;0.60;;;10.30;99.90;;;;;;5073100;28;20432;-71
2022/01/29 11:51:08;;;;;;;0.67;0.60;;;10.20;99.90;;;;;;5072750;28;20412;-71
2022/01/29 11:54:00;;;;;;;0.70;0.60;;;10.30;99.90;;;;;;5073077;28;20463;-71
2022/01/29 11:56:44;;;;;;;0.67;0.50;;;10.20;99.90;;;;;;5071720;28;20428;-72
2022/01/29 11:59:24;;;;;;;0.63;0.60;;;10.10;99.90;;;;;;5073156;28;20497;-70
2022/01/29 12:02:08;;;;;;;0.70;0.60;;;10.10;99.90;;;;;;5073256;28;20454;-71
2022/01/29 12:04:49;;;;;;;0.67;0.60;;;10.30;99.90;;;;;;5072815;28;20404;-71
2022/01/29 12:07:26;;;;;;;0.67;0.60;;;10.60;99.90;;;;;;5072703;28;20462;-71
2022/01/29 12:10:10;;;;;;;0.67;0.60;;;10.60;99.90;;;;;;5073118;28;20396;-71
2022/01/29 12:12:42;;;;;;;0.70;0.60;;;10.90;99.90;;;;;;5072779;28;20413;-72
2022/01/29 12:15:11;;;;;;;1.00;0.70;;;11.20;99.90;;;;;;5072739;28;20835;-71
2022/01/29 12:17:50;;;;;;;0.80;0.77;;;11.60;99.90;;;;;;5072877;28;20432;-72
2022/01/29 12:20:18;;;;;;;0.70;0.60;;;12.00;99.90;;;;;;5073043;28;20408;-70
2022/01/29 12:22:45;;;;;;;0.70;0.60;;;11.70;99.90;;;;;;5072784;28;20405;-71
2022/01/29 12:25:13;;;;;;;1.00;1.00;;;11.70;99.90;;;;;;5073211;28;20415;-70
2022/01/29 12:27:55;;;;;;;0.67;0.60;;;11.70;99.90;;;;;;5082623;28;20460;-71
2022/01/29 12:30:24;;;;;;;0.67;0.60;;;11.70;99.90;;;;;;5071421;28;20420;-70
2022/01/29 12:33:13;;;;;;;0.80;0.73;;;11.70;99.90;;;;;;5072337;28;20415;-71
2022/01/29 12:35:57;;;;;;;0.67;0.60;;;12.00;99.90;;;;;;5072278;28;20416;-71
2022/01/29 12:38:35;;;;;;;0.70;0.60;;;12.00;99.90;;;;;;5071881;28;20578;-71
2022/01/29 12:41:04;;;;;;;0.67;0.60;;;11.60;99.90;;;;;;5075141;28;20424;-70
2022/01/29 12:43:37;;;;;;;0.90;0.80;;;11.40;99.90;;;;;;5078857;28;20426;-70
2022/01/29 12:46:18;;;;;;;0.67;0.60;;;11.50;99.90;;;;;;5081727;28;20455;-71
2022/01/29 12:49:02;;;;;;;0.70;0.60;;;11.50;99.90;;;;;;5078583;28;20971;-71
2022/01/29 12:51:28;;;;;;;0.67;0.50;;;11.30;99.90;;;;;;5078788;28;20419;-71
2022/01/29 12:53:58;;;;;;;0.67;0.60;;;11.00;99.90;;;;;;5080183;28;20484;-71
2022/01/29 12:56:35;;;;;;;0.67;0.50;;;11.10;99.90;;;;;;5080622;28;20189;-71
2022/01/29 12:59:04;;;;;;;0.67;0.60;;;11.10;99.90;;;;;;5081202;28;20424;-71
2022/01/29 13:01:32;;;;;;;0.77;0.70;;;11.00;99.90;;;;;;5083073;28;20404;-72
2022/01/29 13:04:03;;;;;;;0.70;0.60;;;11.00;99.90;;;;;;5080955;28;20522;-71
2022/01/29 13:06:28;;;;;;;0.67;0.60;;;10.90;99.90;;;;;;5059040;28;20453;-71
2022/01/29 13:09:20;;;;;;;0.67;0.50;;;10.90;99.90;;;;;;5054622;28;20942;-72
2022/01/29 13:11:47;;;;;;;0.67;0.60;;;11.00;99.90;;;;;;5067629;28;20178;-72
2022/01/29 13:14:15;;;;;;;0.67;0.60;;;11.20;99.90;;;;;;5055268;28;20413;-71